Time;durP1;ratioP1;P1;durP2;ratioP2;P2;SDS_P1;SDS_P2;PMS_P1;PMS_P2;Temp;Humidity;BMP_temperature;BMP_pressure;BME280_temperature;BME280_humidity;BME280_pressure;Samples;Min_cycle;Max_cycle;Signal;HPM_P1;HPM_P2
2022/08/07 00:02:17;;;;;;;6.30;3.90;;;;;;;17.66;100.00;100665.83;1735221;82;21146;-43
2022/08/07 00:04:43;;;;;;;10.63;3.67;;;;;;;17.65;100.00;100661.03;1735010;81;20940;-42
2022/08/07 00:07:10;;;;;;;11.03;3.50;;;;;;;17.63;100.00;100662.04;1735147;82;21601;-43
2022/08/07 00:09:38;;;;;;;12.15;3.80;;;;;;;17.61;100.00;100658.17;1735282;82;20964;-43
2022/08/07 00:12:06;;;;;;;11.03;4.00;;;;;;;17.62;100.00;100660.34;1735343;82;21526;-43
2022/08/07 00:14:34;;;;;;;14.58;3.87;;;;;;;17.60;100.00;100656.95;1735247;82;21130;-43
2022/08/07 00:17:02;;;;;;;16.93;4.42;;;;;;;17.57;100.00;100658.39;1735077;82;20965;-43
2022/08/07 00:19:31;;;;;;;7.65;3.85;;;;;;;17.55;100.00;100658.89;1735189;82;20965;-43
2022/08/07 00:21:57;;;;;;;9.10;3.70;;;;;;;17.53;100.00;100657.67;1735139;82;21011;-43
2022/08/07 00:24:24;;;;;;;5.35;3.25;;;;;;;17.51;100.00;100662.95;1735180;82;20989;-43
2022/08/07 00:26:51;;;;;;;6.37;3.22;;;;;;;17.48;100.00;100661.79;1747748;81;21175;-43
2022/08/07 00:29:21;;;;;;;8.70;3.92;;;;;;;17.45;100.00;100659.31;1749147;81;20940;-43
2022/08/07 00:31:47;;;;;;;7.95;4.10;;;;;;;17.45;100.00;100652.77;1722113;82;21011;-43
2022/08/07 00:34:14;;;;;;;15.00;3.80;;;;;;;17.47;100.00;100657.48;1749339;82;21664;-43
2022/08/07 00:36:40;;;;;;;10.38;3.60;;;;;;;17.47;100.00;100656.64;1749256;82;21014;-43
2022/08/07 00:39:08;;;;;;;9.35;3.70;;;;;;;17.42;100.00;100658.58;1674770;82;21345;-43
2022/08/07 00:41:35;;;;;;;7.40;3.45;;;;;;;17.39;100.00;100663.52;1749212;81;21011;-43
2022/08/07 00:44:01;;;;;;;15.08;3.50;;;;;;;17.35;100.00;100665.88;1749161;81;20935;-43
2022/08/07 00:46:30;;;;;;;6.35;3.15;;;;;;;17.28;100.00;100660.05;1749042;81;20920;-43
2022/08/07 00:49:01;;;;;;;11.65;3.42;;;;;;;17.21;100.00;100666.00;1749307;82;21506;-43
2022/08/07 00:51:29;;;;;;;8.75;3.58;;;;;;;17.15;100.00;100661.05;1749206;82;21124;-44
2022/08/07 00:53:56;;;;;;;9.58;3.80;;;;;;;17.08;100.00;100660.45;1697667;82;22254;-43
2022/08/07 00:56:23;;;;;;;13.28;3.95;;;;;;;17.04;100.00;100659.32;1749232;81;20968;-44
2022/08/07 00:58:50;;;;;;;7.30;3.90;;;;;;;17.01;100.00;100662.94;1749184;82;20979;-44
2022/08/07 01:01:17;;;;;;;6.17;3.40;;;;;;;16.97;100.00;100667.01;1749343;81;21589;-44
2022/08/07 01:03:44;;;;;;;11.73;3.45;;;;;;;16.93;100.00;100661.08;1749046;81;21958;-44
2022/08/07 01:06:12;;;;;;;4.17;3.30;;;;;;;16.91;100.00;100660.27;1749012;81;20989;-43
2022/08/07 01:08:40;;;;;;;5.97;3.40;;;;;;;16.89;100.00;100665.58;1748998;81;21003;-44
2022/08/07 01:11:07;;;;;;;3.37;3.08;;;;;;;16.86;100.00;100663.09;1749173;82;20933;-44
2022/08/07 01:13:35;;;;;;;9.30;3.08;;;;;;;16.86;100.00;100666.15;1749139;80;21022;-44
2022/08/07 01:16:04;;;;;;;6.62;3.25;;;;;;;16.83;100.00;100661.91;1749133;82;21430;-44
2022/08/07 01:18:31;;;;;;;6.53;3.52;;;;;;;16.82;100.00;100668.06;1748890;82;20940;-44
2022/08/07 01:21:16;;;;;;;9.65;3.25;;;;;;;16.79;100.00;100663.80;1749145;81;20948;-43
2022/08/07 01:23:45;;;;;;;5.50;3.42;;;;;;;16.76;100.00;100665.23;1749139;82;20940;-44
2022/08/07 01:26:14;;;;;;;8.95;3.20;;;;;;;16.74;100.00;100665.75;1725276;81;21464;-44
2022/08/07 01:28:43;;;;;;;5.28;3.50;;;;;;;16.72;100.00;100661.49;1757244;81;21126;-44
2022/08/07 01:31:11;;;;;;;9.63;3.33;;;;;;;16.71;100.00;100661.09;1756865;81;21014;-44
2022/08/07 01:33:37;;;;;;;15.70;3.42;;;;;;;16.69;100.00;100661.63;1756843;80;20998;-44
2022/08/07 01:36:08;;;;;;;6.85;3.35;;;;;;;16.66;100.00;100666.50;1757032;81;20995;-44
2022/08/07 01:38:37;;;;;;;5.75;3.22;;;;;;;16.68;100.00;100664.70;1730438;81;20900;-44
2022/08/07 01:41:06;;;;;;;5.08;2.90;;;;;;;16.66;100.00;100664.75;1728283;81;21230;-43
2022/08/07 01:43:33;;;;;;;11.15;3.92;;;;;;;16.65;100.00;100669.59;1756922;81;20983;-44
2022/08/07 01:46:00;;;;;;;8.68;3.15;;;;;;;16.63;100.00;100670.55;1756893;81;20924;-44
2022/08/07 01:48:27;;;;;;;9.05;3.37;;;;;;;16.62;100.00;100664.48;1700044;81;21562;-44
2022/08/07 01:51:07;;;;;;;11.25;3.30;;;;;;;16.64;100.00;100666.58;1756852;81;21450;-43
2022/08/07 01:53:36;;;;;;;14.00;4.03;;;;;;;16.62;100.00;100664.48;1756784;81;21268;-43
2022/08/07 01:56:08;;;;;;;4.40;3.22;;;;;;;16.59;100.00;100664.62;1729637;81;20960;-43
2022/08/07 01:58:40;;;;;;;6.42;3.37;;;;;;;16.58;100.00;100659.44;1757000;81;21024;-44
2022/08/07 02:01:11;;;;;;;9.08;3.33;;;;;;;16.56;100.00;100659.95;1757189;81;20975;-44
2022/08/07 02:03:42;;;;;;;3.52;3.22;;;;;;;16.53;100.00;100663.53;1729042;81;20971;-44
2022/08/07 02:06:12;;;;;;;3.75;2.90;;;;;;;16.51;100.00;100658.83;1729152;81;21166;-43
2022/08/07 02:08:40;;;;;;;7.62;3.08;;;;;;;16.49;100.00;100658.04;1756785;81;20947;-44
2022/08/07 02:11:09;;;;;;;7.08;3.02;;;;;;;16.48;100.00;100658.95;1756680;81;20938;-43
2022/08/07 02:13:37;;;;;;;9.28;2.62;;;;;;;16.46;100.00;100657.73;1729065;81;21455;-44
2022/08/07 02:16:05;;;;;;;10.98;3.27;;;;;;;16.43;100.00;100657.86;1756854;81;21485;-44
2022/08/07 02:18:35;;;;;;;6.95;2.70;;;;;;;16.42;100.00;100660.52;1756828;81;21177;-44
2022/08/07 02:21:04;;;;;;;3.85;2.87;;;;;;;16.41;100.00;100658.34;1757003;81;21565;-44
2022/08/07 02:23:34;;;;;;;5.58;3.33;;;;;;;16.42;100.00;100664.43;1729120;81;21160;-44
2022/08/07 02:26:01;;;;;;;7.28;2.70;;;;;;;16.43;100.00;100667.44;1750567;81;20978;-44
2022/08/07 02:28:28;;;;;;;5.58;3.10;;;;;;;16.43;100.00;100668.74;1714673;82;21479;-44
2022/08/07 02:30:58;;;;;;;5.25;3.02;;;;;;;16.44;100.00;100661.30;1714301;82;21189;-44
2022/08/07 02:33:26;;;;;;;7.33;3.22;;;;;;;16.46;100.00;100671.23;1735119;82;20972;-43
2022/08/07 02:35:53;;;;;;;8.53;2.83;;;;;;;16.46;100.00;100664.27;1735028;82;20972;-43
2022/08/07 02:38:21;;;;;;;3.95;2.95;;;;;;;16.46;100.00;100668.18;1714146;82;20972;-44
2022/08/07 02:40:49;;;;;;;12.00;2.92;;;;;;;16.47;100.00;100663.34;1735106;82;21446;-44
2022/08/07 02:43:16;;;;;;;7.00;3.00;;;;;;;16.48;100.00;100663.73;1734908;81;21130;-43
2022/08/07 02:45:43;;;;;;;15.63;4.08;;;;;;;16.48;100.00;100662.44;1735035;82;21001;-43
2022/08/07 02:48:12;;;;;;;4.28;2.80;;;;;;;16.47;100.00;100663.78;1714320;82;20937;-44
2022/08/07 02:50:43;;;;;;;7.17;2.75;;;;;;;16.45;100.00;100663.86;1714730;82;20909;-44
2022/08/07 02:53:14;;;;;;;13.43;2.90;;;;;;;16.44;100.00;100666.53;1735229;82;20980;-44
2022/08/07 02:55:46;;;;;;;7.00;2.75;;;;;;;16.43;100.00;100668.74;1735898;82;21178;-44
2022/08/07 02:58:18;;;;;;;5.60;2.87;;;;;;;16.44;100.00;100676.98;1735102;82;20984;-44
2022/08/07 03:00:48;;;;;;;9.53;2.35;;;;;;;16.47;100.00;100682.08;1714781;82;20901;-44
2022/08/07 03:03:15;;;;;;;10.65;3.33;;;;;;;16.48;100.00;100678.55;1714141;82;20945;-44
2022/08/07 03:05:44;;;;;;;5.12;2.75;;;;;;;16.47;100.00;100677.72;1735209;82;21001;-43
2022/08/07 03:08:11;;;;;;;6.12;2.58;;;;;;;16.47;100.00;100682.94;1735531;82;21133;-44
2022/08/07 03:10:41;;;;;;;9.78;2.70;;;;;;;16.49;100.00;100683.73;1735094;82;21545;-44
2022/08/07 03:13:09;;;;;;;8.13;2.42;;;;;;;16.50;100.00;100690.66;1735343;82;21490;-44
2022/08/07 03:15:36;;;;;;;4.55;2.60;;;;;;;16.50;100.00;100689.79;1735194;82;20968;-43
2022/08/07 03:18:03;;;;;;;9.30;2.90;;;;;;;16.54;100.00;100687.91;1735299;82;21072;-43
2022/08/07 03:20:31;;;;;;;5.05;2.37;;;;;;;16.59;100.00;100686.83;1714685;82;21297;-44
2022/08/07 03:22:58;;;;;;;7.75;2.65;;;;;;;16.63;100.00;100694.94;1735217;82;20965;-43
2022/08/07 03:25:26;;;;;;;6.85;2.58;;;;;;;16.68;100.00;100688.23;1735268;82;20986;-43
2022/08/07 03:27:54;;;;;;;8.93;2.72;;;;;;;16.75;100.00;100691.42;1735033;81;21419;-43
2022/08/07 03:30:22;;;;;;;4.50;2.80;;;;;;;16.80;100.00;100685.57;1735381;82;21020;-44
2022/08/07 03:32:50;;;;;;;3.85;3.08;;;;;;;16.87;100.00;100690.94;1735222;82;21159;-43
2022/08/07 03:35:22;;;;;;;9.93;3.33;;;;;;;16.93;100.00;100691.98;1735136;82;20972;-43
2022/08/07 03:37:56;;;;;;;11.18;2.98;;;;;;;17.00;100.00;100691.75;1735617;82;20977;-43
2022/08/07 03:40:25;;;;;;;3.40;2.92;;;;;;;17.06;100.00;100692.35;1735230;82;20980;-43
2022/08/07 03:42:53;;;;;;;6.55;2.67;;;;;;;17.14;100.00;100693.78;1735304;82;20972;-43
2022/08/07 03:45:21;;;;;;;11.90;2.90;;;;;;;17.22;100.00;100700.39;1735260;82;21332;-43
2022/08/07 03:47:48;;;;;;;7.55;3.00;;;;;;;17.31;100.00;100697.85;1735211;82;21008;-43
2022/08/07 03:50:16;;;;;;;7.03;2.92;;;;;;;17.42;100.00;100706.55;1735456;82;21004;-43
2022/08/07 03:52:43;;;;;;;6.05;3.05;;;;;;;17.56;100.00;100703.33;1735176;81;20976;-43
2022/08/07 03:55:10;;;;;;;9.70;3.55;;;;;;;17.73;100.00;100701.27;1735323;82;21527;-48
2022/08/07 03:57:39;;;;;;;6.92;2.72;;;;;;;17.95;100.00;100704.23;1735307;82;21061;-43
2022/08/07 04:00:07;;;;;;;3.47;2.80;;;;;;;18.17;100.00;100699.35;1735222;82;20964;-43
2022/08/07 04:02:36;;;;;;;8.95;2.47;;;;;;;18.37;100.00;100705.82;1734464;82;21015;-43
2022/08/07 04:05:06;;;;;;;5.62;3.02;;;;;;;18.61;100.00;100712.13;1735067;82;20922;-43
2022/08/07 04:07:33;;;;;;;4.37;2.60;;;;;;;18.83;100.00;100708.47;1735235;82;21582;-43
2022/08/07 04:09:59;;;;;;;5.58;2.60;;;;;;;19.05;100.00;100713.96;1714437;82;21352;-44
2022/08/07 04:12:29;;;;;;;6.20;2.42;;;;;;;19.26;100.00;100717.30;1735270;82;20929;-44
2022/08/07 04:14:57;;;;;;;7.28;3.45;;;;;;;19.49;100.00;100721.36;1735606;82;20965;-44
2022/08/07 04:17:24;;;;;;;6.45;2.70;;;;;;;19.72;100.00;100719.30;1735291;82;21016;-43
2022/08/07 04:19:53;;;;;;;5.70;2.67;;;;;;;19.99;100.00;100719.27;1735293;82;20993;-44
2022/08/07 04:22:23;;;;;;;6.22;2.37;;;;;;;20.26;100.00;100716.90;1735266;82;21135;-43
2022/08/07 04:24:49;;;;;;;14.90;2.60;;;;;;;20.50;100.00;100720.41;1714532;82;21455;-44
2022/08/07 04:27:17;;;;;;;5.85;2.70;;;;;;;20.78;100.00;100726.73;1739580;81;20964;-43
2022/08/07 04:29:44;;;;;;;3.40;2.92;;;;;;;21.01;100.00;100725.91;1743175;82;21058;-43
2022/08/07 04:32:11;;;;;;;4.80;2.60;;;;;;;21.17;100.00;100725.41;1743230;81;20928;-43
2022/08/07 04:34:39;;;;;;;9.68;2.55;;;;;;;21.32;100.00;100735.94;1743232;82;21114;-44
2022/08/07 04:37:06;;;;;;;5.60;2.52;;;;;;;21.46;100.00;100730.71;1743329;82;21020;-43
2022/08/07 04:39:33;;;;;;;12.68;2.62;;;;;;;21.56;100.00;100731.01;1743423;82;21027;-43
2022/08/07 04:42:02;;;;;;;7.72;2.87;;;;;;;21.65;100.00;100733.59;1714491;82;21052;-44
2022/08/07 04:44:31;;;;;;;10.58;2.70;;;;;;;21.70;100.00;100729.34;1743157;81;21672;-43
2022/08/07 04:47:12;;;;;;;9.25;2.67;;;;;;;21.73;100.00;100732.64;1743299;81;21239;-44
2022/08/07 04:50:10;;;;;;;4.58;2.58;;;;;;;21.82;100.00;100733.87;1742716;82;20960;-43
2022/08/07 04:52:47;;;;;;;7.97;2.60;;;;;;;21.91;100.00;100730.66;1743368;82;21530;-43
2022/08/07 04:55:24;;;;;;;7.15;2.70;;;;;;;22.00;100.00;100737.14;1743429;82;28140;-44
2022/08/07 04:58:27;;;;;;;4.85;2.60;;;;;;;22.12;100.00;100737.34;1743139;82;21439;-43
2022/08/07 05:00:58;;;;;;;3.83;2.47;;;;;;;22.20;100.00;100740.33;1743163;82;21102;-43
2022/08/07 05:03:48;;;;;;;7.42;3.08;;;;;;;22.32;100.00;100736.89;1743287;82;20971;-43
2022/08/07 05:06:20;;;;;;;9.35;2.70;;;;;;;22.44;100.00;100730.48;1741359;82;20924;-44
2022/08/07 05:09:17;;;;;;;6.50;2.55;;;;;;;22.58;100.00;100737.53;1743054;82;20972;-43
2022/08/07 05:11:47;;;;;;;12.30;2.20;;;;;;;22.72;100.00;100736.14;1705387;82;21071;-44
2022/08/07 05:14:35;;;;;;;5.22;2.37;;;;;;;22.89;100.00;100737.70;1714198;82;20986;-44
2022/08/07 05:17:02;;;;;;;8.83;2.65;;;;;;;23.09;99.02;100735.04;1743256;82;20920;-44
2022/08/07 05:19:37;;;;;;;8.50;2.45;;;;;;;23.34;96.61;100736.52;1743565;82;21225;-44
2022/08/07 05:22:04;;;;;;;7.08;2.17;;;;;;;23.63;94.97;100735.84;1743239;82;20992;-44
2022/08/07 05:24:31;;;;;;;5.50;2.08;;;;;;;23.93;92.35;100735.13;1743505;82;21526;-44
2022/08/07 05:26:59;;;;;;;5.25;2.60;;;;;;;24.18;88.75;100742.67;1714584;82;21224;-44
2022/08/07 05:29:26;;;;;;;6.80;2.70;;;;;;;24.35;87.25;100744.09;1745257;81;20981;-44
2022/08/07 05:31:54;;;;;;;10.88;3.50;;;;;;;24.56;86.49;100739.03;1745358;82;20957;-44
2022/08/07 05:34:22;;;;;;;12.45;3.30;;;;;;;24.67;85.54;100743.53;1745202;82;20932;-44
2022/08/07 05:36:51;;;;;;;10.82;2.90;;;;;;;24.58;84.37;100746.38;1745317;82;21050;-44
2022/08/07 05:39:21;;;;;;;6.22;3.15;;;;;;;24.49;84.85;100752.34;1744766;82;21038;-43
2022/08/07 05:41:48;;;;;;;5.35;2.95;;;;;;;24.39;83.95;100749.52;1745297;82;21015;-44
2022/08/07 05:44:19;;;;;;;12.68;3.15;;;;;;;24.30;84.71;100751.03;1745372;82;20972;-44
2022/08/07 05:46:50;;;;;;;10.80;2.47;;;;;;;24.28;85.38;100754.76;1745158;81;21474;-45
2022/08/07 05:49:18;;;;;;;13.75;2.33;;;;;;;24.30;85.40;100754.99;1745776;82;21011;-44
2022/08/07 05:51:46;;;;;;;12.18;2.52;;;;;;;24.36;84.82;100753.22;1716294;82;21215;-44
2022/08/07 05:54:15;;;;;;;8.93;2.60;;;;;;;24.56;83.97;100758.05;1745559;82;21487;-45
2022/08/07 05:56:42;;;;;;;4.22;2.35;;;;;;;24.78;84.47;100758.19;1745374;82;21462;-45
2022/08/07 05:59:15;;;;;;;7.10;2.05;;;;;;;24.95;81.74;100749.45;1745310;81;20998;-45
2022/08/07 06:01:43;;;;;;;7.95;2.35;;;;;;;25.07;81.21;100756.95;1693179;82;20941;-44
2022/08/07 06:04:11;;;;;;;7.42;3.20;;;;;;;25.17;81.00;100760.61;1715876;82;21332;-44
2022/08/07 06:06:39;;;;;;;7.00;2.90;;;;;;;25.24;78.53;100764.94;1745347;82;20975;-45
2022/08/07 06:09:06;;;;;;;8.03;3.95;;;;;;;25.33;77.35;100762.94;1745405;81;21534;-45
2022/08/07 06:11:35;;;;;;;7.95;2.40;;;;;;;25.48;78.30;100767.56;1745387;81;20979;-43
2022/08/07 06:14:03;;;;;;;6.47;2.37;;;;;;;25.60;74.54;100768.42;1745307;81;21656;-43
2022/08/07 06:16:32;;;;;;;11.15;2.00;;;;;;;25.69;71.73;100776.15;1745420;81;21738;-43
2022/08/07 06:19:00;;;;;;;5.22;2.10;;;;;;;25.80;72.20;100772.66;1745210;82;21053;-45
2022/08/07 06:21:28;;;;;;;6.97;2.30;;;;;;;25.94;71.68;100774.23;1745436;82;21018;-43
2022/08/07 06:23:55;;;;;;;4.60;2.35;;;;;;;26.07;71.39;100773.60;1716010;82;20960;-44
2022/08/07 06:26:23;;;;;;;8.60;2.60;;;;;;;26.20;69.97;100767.37;1716351;82;20945;-43
2022/08/07 06:28:52;;;;;;;15.78;2.30;;;;;;;26.23;71.10;100770.59;1716140;82;21368;-45
2022/08/07 06:31:19;;;;;;;4.30;2.15;;;;;;;26.28;69.53;100768.91;1745267;82;21509;-45
2022/08/07 06:33:47;;;;;;;9.70;2.40;;;;;;;26.37;68.70;100765.50;1745341;82;20936;-45
2022/08/07 06:36:14;;;;;;;5.12;1.95;;;;;;;26.46;67.04;100769.73;1745393;82;20972;-45
2022/08/07 06:38:43;;;;;;;5.28;2.20;;;;;;;26.50;65.64;100766.68;1744907;82;21585;-43
2022/08/07 06:43:05;;;;;;;4.50;2.15;;;;;;;26.71;65.39;100769.05;1815480;79;22571;-44
2022/08/07 06:45:49;;;;;;;4.78;2.30;;;;;;;26.79;63.40;100763.95;1775084;80;21549;-44
2022/08/07 06:48:16;;;;;;;11.78;2.50;;;;;;;26.97;60.37;100768.23;1788545;80;21203;-44
2022/08/07 06:50:44;;;;;;;12.40;2.50;;;;;;;27.11;61.20;100768.41;1788491;80;21564;-44
2022/08/07 06:53:13;;;;;;;6.60;3.17;;;;;;;27.23;60.59;100767.86;1788413;80;20889;-44
2022/08/07 06:55:39;;;;;;;15.75;3.02;;;;;;;27.37;60.95;100763.56;1788696;80;20951;-45
2022/08/07 06:58:10;;;;;;;9.75;2.98;;;;;;;27.53;62.29;100775.07;1788369;80;21491;-45
2022/08/07 07:00:40;;;;;;;8.58;2.30;;;;;;;27.51;61.77;100767.72;1788088;80;21127;-44
2022/08/07 07:03:07;;;;;;;12.43;2.58;;;;;;;27.53;63.01;100767.10;1788256;80;20948;-43
2022/08/07 07:05:36;;;;;;;4.53;2.40;;;;;;;27.54;61.17;100760.81;1788323;80;20920;-43
2022/08/07 07:08:03;;;;;;;6.28;2.45;;;;;;;27.54;61.86;100761.31;1757543;80;20908;-44
2022/08/07 07:10:32;;;;;;;13.03;2.50;;;;;;;27.49;62.02;100762.14;1758403;80;21525;-45
2022/08/07 07:13:15;;;;;;;5.90;2.20;;;;;;;27.38;63.93;100760.39;1784277;80;21158;-44
2022/08/07 07:15:49;;;;;;;4.28;2.47;;;;;;;27.31;64.30;100760.57;1757561;81;21517;-45
2022/08/07 07:18:42;;;;;;;8.85;2.60;;;;;;;27.40;66.53;100759.30;1732781;82;20901;-45
2022/08/07 07:21:18;;;;;;;9.60;2.08;;;;;;;27.61;66.41;100762.93;1749135;82;21007;-44
2022/08/07 07:23:46;;;;;;;7.65;2.00;;;;;;;27.86;64.47;100762.13;1748968;82;21463;-43
2022/08/07 07:26:16;;;;;;;6.72;2.55;;;;;;;28.08;63.46;100763.77;1742478;81;21089;-43
2022/08/07 07:28:55;;;;;;;14.53;2.33;;;;;;;28.37;58.71;100768.34;1734150;80;21506;-44
2022/08/07 07:31:39;;;;;;;11.22;2.10;;;;;;;28.58;58.00;100761.56;1731611;82;21016;-45
2022/08/07 07:34:08;;;;;;;7.30;2.00;;;;;;;28.72;55.96;100762.97;1741049;82;20983;-45
2022/08/07 07:36:36;;;;;;;10.13;1.85;;;;;;;28.79;56.62;100763.28;1748913;82;21530;-44
2022/08/07 07:39:04;;;;;;;5.40;2.00;;;;;;;28.93;57.20;100756.69;1738157;82;21160;-43
2022/08/07 07:41:33;;;;;;;6.55;1.77;;;;;;;29.10;58.02;100760.45;1719216;83;20995;-44
2022/08/07 07:44:00;;;;;;;5.33;1.75;;;;;;;29.16;56.67;100767.87;1736257;82;21003;-44
2022/08/07 07:46:32;;;;;;;2.62;1.75;;;;;;;29.18;59.64;100765.08;1749758;82;21023;-44
2022/08/07 07:48:59;;;;;;;6.28;1.75;;;;;;;29.25;56.52;100762.17;1749654;82;20960;-46
2022/08/07 07:51:26;;;;;;;5.00;1.65;;;;;;;29.28;57.78;100768.55;1732092;81;21943;-45
2022/08/07 07:53:53;;;;;;;4.90;1.90;;;;;;;29.35;56.25;100765.67;1719524;83;20952;-44
2022/08/07 07:56:22;;;;;;;10.18;2.20;;;;;;;29.39;55.03;100767.06;1719407;83;21014;-44
2022/08/07 07:58:50;;;;;;;8.38;1.98;;;;;;;29.45;55.47;100763.50;1720556;82;20940;-44
2022/08/07 08:01:17;;;;;;;8.10;2.05;;;;;;;29.47;54.42;100763.72;1737832;82;20968;-44
2022/08/07 08:03:43;;;;;;;10.45;1.87;;;;;;;29.54;54.23;100764.80;1737034;82;21254;-45
2022/08/07 08:06:11;;;;;;;5.95;1.80;;;;;;;29.68;56.08;100758.16;1716929;82;20960;-44
2022/08/07 08:08:40;;;;;;;9.33;2.15;;;;;;;29.80;55.33;100755.29;1699432;82;20968;-45
2022/08/07 08:11:08;;;;;;;7.28;2.00;;;;;;;29.91;55.49;100757.78;1723411;82;20991;-45
2022/08/07 08:13:43;;;;;;;1.82;1.50;;;;;;;30.09;53.50;100759.19;1729165;81;20944;-45
2022/08/07 08:16:13;;;;;;;;;;;;;;;30.31;50.31;100761.09;1735517;82;21281;-44
2022/08/07 08:18:40;;;;;;;15.30;1.90;;;;;;;30.31;51.16;100755.75;1745797;82;20202;-44
2022/08/07 08:27:03;;;;;;;4.72;1.90;;;;;;;30.31;50.07;100761.09;1743715;82;20960;-44
2022/08/07 08:29:07;;;;;;;;;;;;;;;30.84;50.18;100762.61;1738380;82;22156;-45
2022/08/07 08:31:35;;;;;;;7.60;1.87;;;;;;;30.95;47.82;100755.70;1741962;82;20095;-45
2022/08/07 08:34:03;;;;;;;4.70;1.50;;;;;;;30.98;50.37;100753.72;1734777;82;21185;-45
2022/08/07 08:36:32;;;;;;;9.10;2.05;;;;;;;30.99;50.61;100755.39;1749268;82;21549;-46
2022/08/07 08:39:00;;;;;;;5.37;1.75;;;;;;;31.04;50.24;100755.25;1749048;82;20968;-42
2022/08/07 08:41:44;;;;;;;6.42;1.52;;;;;;;31.27;46.05;100758.78;1745046;81;21100;-45
2022/08/07 08:44:31;;;;;;;9.18;1.67;;;;;;;31.50;43.99;100757.76;1745934;81;21022;-44
2022/08/07 08:47:15;;;;;;;9.95;1.80;;;;;;;31.78;42.37;100756.25;1677999;82;20952;-43
2022/08/07 08:49:47;;;;;;;6.65;1.67;;;;;;;31.87;40.90;100754.94;1749081;81;21039;-43
2022/08/07 08:52:23;;;;;;;6.62;1.70;;;;;;;31.88;43.00;100752.59;1740133;82;21003;-44
2022/08/07 08:55:16;;;;;;;12.00;1.60;;;;;;;32.09;41.97;100758.36;1743816;82;22024;-44
2022/08/07 08:58:09;;;;;;;7.70;1.80;;;;;;;32.37;41.07;100747.92;1678286;82;21015;-45
2022/08/07 09:00:41;;;;;;;3.22;1.50;;;;;;;32.62;40.37;100752.79;1749120;82;20988;-45
2022/08/07 09:03:31;;;;;;;13.53;2.05;;;;;;;32.70;38.22;100749.77;1748663;82;21581;-44
2022/08/07 09:06:07;;;;;;;7.45;1.67;;;;;;;32.76;39.68;100745.92;1722229;82;21019;-43
2022/08/07 09:09:01;;;;;;;10.70;2.05;;;;;;;32.91;41.22;100740.75;1723601;82;21256;-44
2022/08/07 09:11:43;;;;;;;4.00;1.42;;;;;;;33.01;39.78;100736.56;1719224;83;20908;-46
2022/08/07 09:14:19;;;;;;;8.85;1.82;;;;;;;33.14;38.70;100744.59;1692212;83;21044;-43
2022/08/07 09:17:20;;;;;;;7.53;2.27;;;;;;;33.17;39.48;100740.23;1719285;83;21486;-44
2022/08/07 09:20:07;;;;;;;16.70;1.80;;;;;;;33.19;42.31;100745.73;1719189;83;21007;-45
2022/08/07 09:23:14;;;;;;;2.02;1.42;;;;;;;33.27;38.42;100738.70;1718683;83;21269;-45
2022/08/07 09:26:08;;;;;;;4.28;1.55;;;;;;;33.25;40.79;100739.72;1718467;83;20971;-45
2022/08/07 09:28:48;;;;;;;10.35;2.30;;;;;;;33.29;43.60;100747.41;1719194;83;21525;-45
2022/08/07 09:31:41;;;;;;;12.30;1.75;;;;;;;33.43;42.48;100741.87;1718282;83;21023;-45
2022/08/07 09:34:15;;;;;;;5.20;1.80;;;;;;;33.56;41.62;100740.81;1717656;83;21004;-45
2022/08/07 09:37:15;;;;;;;4.17;1.50;;;;;;;33.77;42.88;100738.89;1719208;83;21917;-45
2022/08/07 09:39:53;;;;;;;5.35;1.32;;;;;;;34.01;40.10;100746.53;1718682;83;20944;-44
2022/08/07 09:43:03;;;;;;;7.62;2.05;;;;;;;34.08;39.09;100740.77;1715091;83;20933;-45
2022/08/07 09:46:07;;;;;;;3.98;1.57;;;;;;;33.94;39.53;100740.14;1705814;83;20944;-44
2022/08/07 09:49:11;;;;;;;5.22;1.77;;;;;;;34.13;37.68;100746.11;1705930;83;21028;-45
2022/08/07 09:52:10;;;;;;;5.20;1.45;;;;;;;34.19;36.62;100741.37;1705679;84;22176;-44
2022/08/07 09:54:46;;;;;;;6.03;1.32;;;;;;;34.31;34.53;100741.30;1688837;84;21152;-44
2022/08/07 09:57:33;;;;;;;10.45;1.90;;;;;;;34.63;34.34;100737.24;1705881;84;20992;-44
2022/08/07 10:00:08;;;;;;;6.17;1.40;;;;;;;34.73;33.26;100739.16;1684423;84;20992;-44
2022/08/07 10:02:58;;;;;;;10.08;1.65;;;;;;;34.59;32.52;100738.59;1705842;84;21069;-43
2022/08/07 10:05:59;;;;;;;9.65;1.70;;;;;;;34.49;34.30;100740.21;1705985;84;21230;-43
2022/08/07 10:08:44;;;;;;;4.12;1.95;;;;;;;34.59;32.22;100737.25;1705586;83;21036;-44
2022/08/07 10:11:34;;;;;;;8.23;1.40;;;;;;;34.67;31.58;100729.14;1712663;82;20970;-43
2022/08/07 10:14:18;;;;;;;8.60;1.17;;;;;;;34.67;31.38;100726.45;1734884;81;20945;-43
2022/08/07 10:17:18;;;;;;;11.80;1.37;;;;;;;34.67;29.55;100729.96;1730507;81;20933;-45
2022/08/07 10:20:16;;;;;;;3.35;1.32;;;;;;;34.82;31.96;100731.86;1726590;81;21234;-42
2022/08/07 10:23:12;;;;;;;7.00;1.55;;;;;;;35.04;33.27;100723.97;1728999;82;20949;-44
2022/08/07 10:26:29;;;;;;;6.47;1.25;;;;;;;35.27;30.65;100732.47;1726230;82;21016;-45
2022/08/07 10:29:20;;;;;;;5.10;1.62;;;;;;;35.21;31.62;100720.06;1731431;82;21028;-44
2022/08/07 10:32:23;;;;;;;6.28;2.37;;;;;;;35.04;30.14;100723.97;1715329;82;20894;-45
2022/08/07 10:35:11;;;;;;;3.35;1.20;;;;;;;34.77;30.93;100725.68;1711501;82;21184;-45
2022/08/07 10:38:30;;;;;;;6.58;2.10;;;;;;;34.82;29.06;100722.45;1661541;85;20956;-45
2022/08/07 10:41:05;;;;;;;12.13;2.00;;;;;;;34.89;28.47;100718.53;1695100;82;20964;-45
2022/08/07 10:43:43;;;;;;;7.22;1.70;;;;;;;35.17;32.90;100717.42;1670006;85;21531;-44
2022/08/07 10:46:15;;;;;;;7.30;1.90;;;;;;;35.44;30.57;100716.97;1648992;85;20968;-45
2022/08/07 10:48:58;;;;;;;6.05;1.35;;;;;;;35.44;30.33;100714.27;1721544;82;21195;-45
2022/08/07 10:51:40;;;;;;;4.15;1.10;;;;;;;35.34;29.96;100715.90;1725211;82;20990;-44
2022/08/07 10:54:39;;;;;;;4.33;1.22;;;;;;;35.27;31.10;100712.30;1704417;84;21008;-45
2022/08/07 10:57:20;;;;;;;5.20;1.10;;;;;;;35.50;31.22;100710.83;1703479;84;20972;-44
2022/08/07 10:59:56;;;;;;;8.48;1.55;;;;;;;35.79;30.36;100708.64;1705177;84;21505;-44
2022/08/07 11:03:01;;;;;;;7.75;1.10;;;;;;;35.94;30.49;100710.44;1706000;84;21843;-45
2022/08/07 11:05:53;;;;;;;2.33;1.35;;;;;;;36.05;27.57;100707.79;1726060;82;21015;-44
2022/08/07 11:08:46;;;;;;;5.17;1.60;;;;;;;36.17;28.92;100704.08;1718744;82;21012;-46
2022/08/07 11:11:30;;;;;;;4.78;1.55;;;;;;;36.29;27.89;100697.66;1705664;84;21142;-46
2022/08/07 11:14:29;;;;;;;3.95;1.22;;;;;;;36.20;27.83;100692.92;1702336;82;21002;-45
2022/08/07 11:17:04;;;;;;;4.53;1.30;;;;;;;36.02;28.36;100696.91;1706440;82;21268;-46
2022/08/07 11:20:00;;;;;;;;;;;;;;;35.63;27.29;100695.39;1701911;82;20998;-44
2022/08/07 11:22:48;;;;;;;4.28;1.50;;;;;;;35.28;28.60;100701.33;1719659;82;20146;-44
2022/08/07 11:25:26;;;;;;;2.95;1.20;;;;;;;35.14;28.47;100696.81;1734426;82;20933;-44
2022/08/07 11:28:16;;;;;;;2.10;1.20;;;;;;;35.22;31.04;100698.87;1727125;82;20952;-44
2022/08/07 11:31:07;;;;;;;2.70;1.10;;;;;;;35.51;29.37;100691.85;1634895;86;21294;-44
2022/08/07 11:34:01;;;;;;;6.62;1.35;;;;;;;35.83;29.98;100693.45;1721479;82;21039;-44
2022/08/07 11:36:49;;;;;;;6.47;0.90;;;;;;;36.06;30.32;100684.72;1726269;82;21695;-44
2022/08/07 11:39:32;;;;;;;8.98;1.20;;;;;;;36.31;29.85;100676.25;1664255;82;20960;-44
2022/08/07 11:42:14;;;;;;;4.15;1.15;;;;;;;36.48;30.46;100673.27;1707104;82;20989;-45
2022/08/07 11:45:08;;;;;;;5.62;1.40;;;;;;;36.69;29.02;100673.78;1720108;82;21300;-45
2022/08/07 11:47:59;;;;;;;2.55;1.20;;;;;;;36.61;26.63;100672.56;1726932;82;20981;-44
2022/08/07 11:50:57;;;;;;;14.35;2.20;;;;;;;36.17;25.86;100667.22;1734495;82;20977;-44
2022/08/07 11:53:53;;;;;;;5.87;1.75;;;;;;;35.36;27.46;100673.51;1735413;82;21530;-44
2022/08/07 11:57:02;;;;;;;7.35;1.57;;;;;;;34.59;28.95;100668.25;1734922;81;21415;-44
2022/08/07 12:00:12;;;;;;;12.82;1.40;;;;;;;34.52;30.28;100672.16;1735100;82;21951;-45
2022/08/07 12:03:02;;;;;;;3.35;1.10;;;;;;;34.78;33.15;100670.09;1734357;82;21031;-45